createdAt,value
2019-02-19T00:01:37.563Z,19.93
2019-02-19T00:06:42.949Z,17.23
2019-02-19T00:11:48.356Z,20.47
2019-02-19T00:16:53.729Z,22.40
2019-02-19T00:21:58.503Z,25.67
2019-02-19T00:27:03.783Z,24.07
2019-02-19T00:32:09.129Z,18.03
2019-02-19T00:37:14.490Z,22.57
2019-02-19T00:42:19.842Z,23.63
2019-02-19T00:47:25.178Z,20.17
2019-02-19T00:52:30.713Z,20.63
2019-02-19T00:57:36.031Z,22.97
2019-02-19T01:02:41.493Z,22.47
2019-02-19T01:07:47.024Z,21.30
2019-02-19T01:12:52.377Z,16.50
2019-02-19T01:17:57.731Z,17.63
2019-02-19T01:23:03.270Z,16.57
2019-02-19T01:28:08.562Z,21.40
2019-02-19T01:33:14.078Z,20.97
2019-02-19T01:38:18.867Z,16.93
2019-02-19T01:43:24.586Z,18.63
2019-02-19T01:48:29.903Z,19.40
2019-02-19T01:53:35.663Z,19.37
2019-02-19T01:58:40.980Z,22.30
2019-02-19T02:03:46.665Z,18.40
2019-02-19T02:08:52.014Z,19.93
2019-02-19T02:13:57.572Z,24.07
2019-02-19T02:19:03.330Z,20.37
2019-02-19T02:24:08.039Z,18.33
2019-02-19T02:29:13.714Z,20.73
2019-02-19T02:34:18.947Z,21.73
2019-02-19T02:39:24.747Z,20.73
2019-02-19T02:44:30.082Z,17.17
2019-02-19T02:49:35.911Z,22.57
2019-02-19T02:54:41.235Z,18.47
2019-02-19T02:59:46.703Z,19.93
2019-02-19T03:04:52.288Z,23.00
2019-02-19T03:09:57.661Z,21.67
2019-02-19T03:15:03.435Z,20.83
2019-02-19T03:20:08.864Z,22.60
2019-02-19T03:25:14.691Z,18.47
2019-02-19T03:30:20.033Z,19.00
2019-02-19T03:35:25.616Z,19.00
2019-02-19T03:40:30.941Z,25.07
2019-02-19T03:45:36.517Z,22.93
2019-02-19T03:50:42.074Z,21.43
2019-02-19T03:55:47.427Z,22.17
2019-02-19T04:00:52.747Z,22.23
2019-02-19T04:05:58.058Z,22.00
2019-02-19T04:11:03.327Z,25.43
2019-02-19T04:16:08.638Z,21.90
2019-02-19T04:21:13.947Z,24.63
2019-02-19T04:26:19.268Z,27.00
2019-02-19T04:31:24.583Z,25.10
2019-02-19T04:36:29.896Z,23.43
2019-02-19T04:41:35.211Z,23.33
2019-02-19T04:46:40.521Z,21.60
2019-02-19T04:51:45.869Z,28.77
2019-02-19T04:56:51.474Z,22.83
2019-02-19T05:01:56.776Z,38.73
2019-02-19T05:07:03.161Z,52.80
2019-02-19T05:12:08.474Z,40.20
2019-02-19T05:17:13.803Z,46.10
2019-02-19T05:22:19.102Z,47.87
2019-02-19T05:27:24.422Z,45.80
2019-02-19T05:32:29.722Z,43.90
2019-02-19T05:37:35.024Z,38.83
2019-02-19T05:42:40.434Z,28.43
2019-02-19T05:47:45.768Z,31.43
2019-02-19T05:52:51.095Z,37.93
2019-02-19T05:57:56.422Z,41.80
2019-02-19T06:03:01.859Z,44.63
2019-02-19T06:08:07.181Z,48.17
2019-02-19T06:13:12.481Z,46.73
2019-02-19T06:18:17.815Z,40.90
2019-02-19T06:23:23.109Z,36.97
2019-02-19T06:28:28.444Z,33.47
2019-02-19T06:33:34.836Z,29.37
2019-02-19T06:38:40.160Z,31.70
2019-02-19T06:43:45.471Z,37.43
2019-02-19T06:48:50.783Z,33.10
2019-02-19T06:53:56.111Z,38.80
2019-02-19T06:59:01.431Z,31.37
2019-02-19T07:04:12.601Z,48.20
2019-02-19T07:09:17.911Z,53.50
2019-02-19T07:14:23.295Z,61.20
2019-02-19T07:19:28.608Z,58.63
2019-02-19T07:24:33.912Z,71.03
2019-02-19T07:29:39.225Z,73.17
2019-02-19T07:34:44.528Z,73.97
2019-02-19T07:39:49.831Z,59.03
2019-02-19T07:44:55.155Z,47.80
2019-02-19T07:50:00.453Z,39.10
2019-02-19T07:55:06.179Z,45.37
2019-02-19T08:00:11.945Z,31.73
2019-02-19T08:05:17.250Z,22.63
2019-02-19T08:10:22.568Z,25.77
2019-02-19T08:15:27.903Z,23.93
2019-02-19T08:20:33.579Z,29.57
2019-02-19T08:25:38.880Z,25.43
2019-02-19T08:30:44.951Z,25.27
2019-02-19T08:35:50.251Z,30.03
2019-02-19T08:40:56.023Z,25.23
2019-02-19T08:46:01.506Z,24.73
2019-02-19T08:51:07.650Z,23.20
2019-02-19T08:56:13.094Z,25.60
2019-02-19T09:01:18.938Z,22.80
2019-02-19T09:06:25.040Z,24.67
2019-02-19T09:11:36.899Z,26.67
2019-02-19T09:16:43.473Z,23.80
2019-02-19T09:21:48.957Z,24.33
2019-02-19T09:26:55.096Z,28.13
2019-02-19T09:32:01.563Z,29.37
2019-02-19T09:37:06.923Z,31.57
2019-02-19T09:42:13.147Z,27.63
2019-02-19T09:47:18.870Z,27.60
2019-02-19T09:52:24.827Z,29.50
2019-02-19T09:57:32.613Z,29.37
2019-02-19T10:02:37.982Z,27.07
2019-02-19T10:07:44.991Z,24.23
2019-02-19T10:12:51.317Z,27.10
2019-02-19T10:17:56.662Z,26.40
2019-02-19T10:23:03.217Z,25.63
2019-02-19T10:28:09.362Z,23.47
2019-02-19T10:33:15.355Z,24.67
2019-02-19T10:38:21.892Z,24.73
2019-02-19T10:43:27.329Z,26.43
2019-02-19T10:48:33.751Z,22.77
2019-02-19T10:53:39.258Z,20.57
2019-02-19T10:58:45.143Z,22.90
2019-02-19T11:03:51.108Z,20.53
2019-02-19T11:08:56.622Z,20.60
2019-02-19T11:14:03.208Z,19.17
2019-02-19T11:19:08.899Z,8.00
2019-02-19T11:24:15.024Z,8.10
2019-02-19T11:29:21.406Z,15.40
2019-02-19T11:34:26.867Z,8.60
2019-02-19T11:39:33.412Z,14.93
2019-02-19T11:44:39.104Z,16.73
2019-02-19T11:49:45.055Z,11.50
2019-02-19T11:54:51.016Z,11.87
2019-02-19T11:59:57.501Z,9.30
2019-02-19T12:05:02.970Z,10.83
2019-02-19T12:10:09.136Z,8.50
2019-02-19T12:15:15.028Z,14.70
2019-02-19T12:20:21.546Z,10.37
2019-02-19T12:25:27.059Z,13.57
2019-02-19T12:30:32.722Z,12.30
2019-02-19T12:35:38.023Z,13.63
2019-02-19T12:40:43.878Z,12.97
2019-02-19T12:45:49.373Z,16.27
2019-02-19T12:50:55.525Z,6.90
2019-02-19T12:56:01.202Z,15.03
2019-02-19T13:01:07.236Z,10.73
2019-02-19T13:06:14.016Z,17.50
2019-02-19T13:11:19.575Z,12.30
2019-02-19T13:16:25.364Z,16.00
2019-02-19T13:21:30.731Z,13.33
2019-02-19T13:26:36.059Z,15.93
2019-02-19T13:31:41.382Z,13.37
2019-02-19T13:36:46.693Z,11.93
2019-02-19T13:41:52.019Z,13.43
2019-02-19T13:46:57.363Z,11.20
2019-02-19T13:52:10.318Z,13.20
2019-02-19T13:57:15.664Z,11.30
2019-02-19T14:02:20.980Z,13.53
2019-02-19T14:07:26.315Z,11.10
2019-02-19T14:12:31.643Z,14.23
2019-02-19T14:17:36.939Z,10.27
2019-02-19T14:22:53.768Z,10.70
2019-02-19T14:28:16.941Z,7.53
2019-02-19T14:33:48.674Z,10.00
2019-02-19T14:39:14.807Z,11.93
2019-02-19T14:44:37.661Z,13.53
2019-02-19T14:50:01.019Z,12.00
2019-02-19T14:55:36.255Z,13.07
2019-02-19T15:01:00.601Z,13.80
2019-02-19T15:06:35.228Z,26.73
2019-02-19T15:11:59.496Z,24.50
2019-02-19T15:17:29.707Z,25.60
2019-02-19T15:22:43.799Z,28.43
2019-02-19T15:28:08.707Z,26.13
2019-02-19T15:33:36.054Z,25.80
2019-02-19T15:38:59.219Z,27.77
2019-02-19T15:44:32.524Z,24.37
2019-02-19T15:50:06.254Z,34.00
2019-02-19T15:55:42.883Z,31.13
2019-02-19T16:01:07.288Z,26.57
2019-02-19T16:06:37.009Z,29.63
2019-02-19T16:12:10.359Z,37.53
2019-02-19T16:17:49.722Z,38.07
2019-02-19T16:23:18.455Z,35.23
2019-02-19T16:28:38.263Z,28.90
2019-02-19T16:34:01.209Z,29.90
2019-02-19T16:39:24.980Z,28.63
2019-02-19T16:45:01.684Z,31.87
2019-02-19T16:50:26.074Z,34.97
2019-02-19T16:55:46.452Z,37.77
2019-02-19T17:01:07.865Z,31.90
2019-02-19T17:06:39.140Z,35.73
2019-02-19T17:11:58.591Z,33.23
2019-02-19T17:17:26.311Z,32.50
2019-02-19T17:22:50.589Z,30.17
2019-02-19T17:28:27.245Z,32.53
2019-02-19T17:33:51.644Z,37.47
2019-02-19T17:39:11.832Z,36.97
2019-02-19T17:44:48.795Z,35.07
2019-02-19T17:50:19.408Z,40.43
2019-02-19T17:55:42.617Z,37.73
2019-02-19T18:01:01.048Z,27.43
2019-02-19T18:06:31.502Z,47.13
2019-02-19T18:12:07.948Z,40.67
2019-02-19T18:17:24.804Z,22.43
2019-02-19T18:22:31.085Z,15.63
2019-02-19T18:27:36.937Z,24.60
2019-02-19T18:32:42.492Z,16.77
2019-02-19T18:37:47.914Z,19.53
2019-02-19T18:42:53.328Z,20.90
2019-02-19T18:47:58.687Z,22.50
2019-02-19T18:53:04.047Z,16.53
2019-02-19T18:58:09.447Z,15.87
2019-02-19T19:03:14.912Z,18.90
2019-02-19T19:08:20.373Z,35.80
2019-02-19T19:13:25.796Z,54.17
2019-02-19T19:18:31.424Z,29.50
2019-02-19T19:23:37.005Z,20.07
2019-02-19T19:28:42.501Z,23.63
2019-02-19T19:33:48.087Z,22.73
2019-02-19T19:38:53.695Z,20.40
2019-02-19T19:43:59.180Z,17.20
2019-02-19T19:49:04.515Z,20.03
2019-02-19T19:54:10.059Z,22.20
2019-02-19T19:59:15.545Z,22.53
2019-02-19T20:04:21.088Z,20.67
2019-02-19T20:09:26.492Z,22.67
2019-02-19T20:14:31.908Z,26.17
2019-02-19T20:19:37.312Z,25.60
2019-02-19T20:24:42.816Z,23.60
2019-02-19T20:29:48.511Z,21.47
2019-02-19T20:34:54.030Z,24.47
2019-02-19T20:39:59.383Z,26.13
2019-02-19T20:45:05.540Z,26.00
2019-02-19T20:50:12.524Z,28.07
2019-02-19T20:55:19.448Z,34.97
2019-02-19T21:00:24.841Z,20.40
2019-02-19T21:05:30.507Z,19.90
2019-02-19T21:10:36.652Z,23.90
2019-02-19T21:15:42.063Z,22.93
2019-02-19T21:20:47.687Z,20.67
2019-02-19T21:25:53.263Z,24.33
2019-02-19T21:30:58.902Z,25.83
2019-02-19T21:36:04.358Z,22.27
2019-02-19T21:41:09.767Z,21.20
2019-02-19T21:46:15.154Z,22.97
2019-02-19T21:51:20.787Z,25.50
2019-02-19T21:56:26.182Z,25.97
2019-02-19T22:01:31.574Z,27.10
2019-02-19T22:06:39.368Z,28.53
2019-02-19T22:11:46.124Z,27.80
2019-02-19T22:16:51.792Z,25.97
2019-02-19T22:22:03.697Z,32.37
2019-02-19T22:27:09.152Z,29.27
2019-02-19T22:32:16.889Z,32.27
2019-02-19T22:37:22.416Z,26.27
2019-02-19T22:42:28.475Z,29.97
2019-02-19T22:47:35.538Z,24.03
2019-02-19T22:52:41.370Z,25.77
2019-02-19T22:57:47.784Z,27.47
2019-02-19T23:02:53.648Z,29.63
2019-02-19T23:07:59.494Z,26.70
2019-02-19T23:13:06.396Z,28.03
2019-02-19T23:18:12.807Z,26.53
2019-02-19T23:23:18.692Z,25.67
2019-02-19T23:28:24.805Z,29.23
2019-02-19T23:33:30.650Z,25.87
2019-02-19T23:38:37.035Z,25.27
2019-02-19T23:43:43.667Z,27.63
2019-02-19T23:48:50.190Z,30.53
2019-02-19T23:53:56.589Z,24.13
2019-02-19T23:59:03.105Z,26.47
